Time;durP1;ratioP1;P1;durP2;ratioP2;P2;SDS_P1;SDS_P2;PMS_P1;PMS_P2;Temp;Humidity;BMP_temperature;BMP_pressure;BME280_temperature;BME280_humidity;BME280_pressure;Samples;Min_cycle;Max_cycle;Signal;HPM_P1;HPM_P2
2022/05/28 00:02:24;;;;;;;12.73;2.67;;;;;;;;;;5009296;28;20754;-70
2022/05/28 00:04:50;;;;;;;7.67;2.60;;;;;;;;;;5011992;28;20064;-71
2022/05/28 00:07:15;;;;;;;11.43;2.88;;;;;;;;;;5003140;28;20871;-71
2022/05/28 00:09:41;;;;;;;11.87;2.73;;;;;;;;;;5014763;28;20025;-71
2022/05/28 00:12:06;;;;;;;11.50;3.05;;;;;;;;;;5008394;28;20276;-69
2022/05/28 00:14:31;;;;;;;5.60;2.35;;;;;;;;;;5006346;28;20060;-70
2022/05/28 00:16:56;;;;;;;11.57;2.37;;;;;;;;;;4997321;28;20117;-71
2022/05/28 00:19:22;;;;;;;8.07;2.40;;;;;;;;;;5004718;28;20617;-71
2022/05/28 00:21:47;;;;;;;12.25;2.65;;;;;;;;;;5001480;28;20072;-70
2022/05/28 00:24:12;;;;;;;6.37;2.23;;;;;;;;;;4984140;28;20022;-70
2022/05/28 00:26:38;;;;;;;8.97;2.60;;;;;;;;;;5002045;28;20267;-71
2022/05/28 00:29:03;;;;;;;10.82;2.70;;;;;;;;;;5002807;28;20796;-69
2022/05/28 00:31:28;;;;;;;10.27;3.10;;;;;;;;;;5001676;28;20547;-69
2022/05/28 00:33:53;;;;;;;9.23;3.40;;;;;;;;;;4999981;28;20314;-70
2022/05/28 00:36:19;;;;;;;17.13;5.35;;;;;;;;;;5002878;28;20022;-69
2022/05/28 00:38:44;;;;;;;8.43;3.20;;;;;;;;;;5004128;28;20136;-69
2022/05/28 00:41:10;;;;;;;7.53;3.15;;;;;;;;;;5000304;28;20025;-71
2022/05/28 00:43:37;;;;;;;10.65;3.15;;;;;;;;;;5003433;28;20030;-71
2022/05/28 00:46:25;;;;;;;13.70;2.80;;;;;;;;;;5004031;28;20413;-71
2022/05/28 00:48:55;;;;;;;13.85;3.08;;;;;;;;;;4994444;28;20132;-71
2022/05/28 00:51:24;;;;;;;14.50;3.55;;;;;;;;;;5002182;28;20171;-71
2022/05/28 00:53:49;;;;;;;10.13;3.30;;;;;;;;;;5000931;28;20022;-71
2022/05/28 00:56:15;;;;;;;12.05;2.72;;;;;;;;;;5003222;28;20073;-71
2022/05/28 00:58:40;;;;;;;11.13;3.75;;;;;;;;;;5008445;28;20026;-71
2022/05/28 01:01:06;;;;;;;7.47;2.92;;;;;;;;;;5008081;28;20038;-71
2022/05/28 01:03:34;;;;;;;7.00;2.92;;;;;;;;;;5004656;28;20037;-71
2022/05/28 01:06:02;;;;;;;7.60;2.70;;;;;;;;;;5000389;28;20417;-71
2022/05/28 01:08:49;;;;;;;9.75;2.78;;;;;;;;;;4997237;28;20022;-71
2022/05/28 01:11:15;;;;;;;13.18;4.38;;;;;;;;;;5002757;28;20049;-71
2022/05/28 01:13:48;;;;;;;9.10;2.90;;;;;;;;;;5001845;28;20076;-71
2022/05/28 01:16:31;;;;;;;10.00;4.45;;;;;;;;;;5004385;28;20279;-69
2022/05/28 01:19:02;;;;;;;11.13;3.50;;;;;;;;;;5001141;28;20033;-71
2022/05/28 01:21:36;;;;;;;8.43;3.45;;;;;;;;;;5009440;28;20442;-71
2022/05/28 01:24:01;;;;;;;11.50;3.13;;;;;;;;;;5007690;28;20036;-70
2022/05/28 01:26:45;;;;;;;11.35;3.50;;;;;;;;;;5006073;28;20030;-71
2022/05/28 01:29:12;;;;;;;11.82;3.40;;;;;;;;;;5005683;28;20113;-71
2022/05/28 01:31:38;;;;;;;8.00;3.00;;;;;;;;;;5006094;28;20101;-71
2022/05/28 01:34:05;;;;;;;8.10;3.35;;;;;;;;;;5004830;28;20380;-70
2022/05/28 01:36:32;;;;;;;8.90;3.17;;;;;;;;;;5008443;28;20070;-71
2022/05/28 01:38:57;;;;;;;11.60;3.55;;;;;;;;;;5001185;28;20426;-71
2022/05/28 01:41:22;;;;;;;7.23;2.83;;;;;;;;;;5008330;28;20033;-71
2022/05/28 01:43:48;;;;;;;15.82;3.50;;;;;;;;;;5007748;28;20282;-71
2022/05/28 01:46:15;;;;;;;6.20;2.85;;;;;;;;;;5003802;28;20041;-71
2022/05/28 01:48:42;;;;;;;9.10;3.42;;;;;;;;;;5006415;28;20025;-71
2022/05/28 01:51:09;;;;;;;10.13;3.53;;;;;;;;;;5006629;28;20101;-71
2022/05/28 01:56:19;;;;;;;16.25;3.38;;;;;;;;;;5008630;28;20076;-71
2022/05/28 01:58:44;;;;;;;12.70;3.78;;;;;;;;;;5009039;28;20056;-71
2022/05/28 02:01:10;;;;;;;7.88;3.17;;;;;;;;;;5007866;28;20029;-71
2022/05/28 02:03:36;;;;;;;13.75;3.80;;;;;;;;;;5009335;28;20068;-71
2022/05/28 02:06:02;;;;;;;12.05;3.13;;;;;;;;;;5006157;28;20357;-71
2022/05/28 02:08:28;;;;;;;14.07;3.47;;;;;;;;;;4999875;28;20300;-71
2022/05/28 02:10:58;;;;;;;11.48;3.80;;;;;;;;;;5007974;28;20546;-71
2022/05/28 02:13:26;;;;;;;16.27;3.88;;;;;;;;;;5003630;28;20473;-71
2022/05/28 02:15:54;;;;;;;11.10;3.20;;;;;;;;;;5012252;28;20017;-71
2022/05/28 02:18:19;;;;;;;15.70;3.72;;;;;;;;;;5007533;28;20042;-71
2022/05/28 02:20:48;;;;;;;11.30;3.43;;;;;;;;;;5007743;28;20032;-71
2022/05/28 02:23:19;;;;;;;16.13;3.50;;;;;;;;;;5004632;28;20345;-71
2022/05/28 02:25:45;;;;;;;12.23;3.22;;;;;;;;;;5005927;28;20034;-71
2022/05/28 02:28:12;;;;;;;11.90;3.47;;;;;;;;;;5004191;28;20029;-71
2022/05/28 02:30:56;;;;;;;9.45;3.72;;;;;;;;;;5005889;28;20029;-72
2022/05/28 02:33:21;;;;;;;;;;;;;;;;;;5002986;28;20141;-71
2022/05/28 02:35:46;;;;;;;10.50;3.88;;;;;;;;;;5006067;28;19910;-71
2022/05/28 02:38:12;;;;;;;13.35;3.72;;;;;;;;;;5003641;28;20029;-71
2022/05/28 02:40:38;;;;;;;13.57;3.70;;;;;;;;;;5003835;28;20347;-71
2022/05/28 02:43:03;;;;;;;13.40;3.60;;;;;;;;;;5001425;28;20051;-71
2022/05/28 02:45:28;;;;;;;11.53;3.90;;;;;;;;;;5005952;28;20040;-71
2022/05/28 02:47:54;;;;;;;11.20;3.53;;;;;;;;;;5002937;28;20816;-71
2022/05/28 02:50:19;;;;;;;14.13;4.15;;;;;;;;;;5001722;28;20362;-71
2022/05/28 02:52:44;;;;;;;8.67;3.67;;;;;;;;;;5005975;28;20081;-71
2022/05/28 02:55:10;;;;;;;9.43;3.87;;;;;;;;;;4999906;28;20267;-70
2022/05/28 02:57:35;;;;;;;11.03;4.33;;;;;;;;;;5007311;28;20778;-71
2022/05/28 03:00:00;;;;;;;10.38;3.25;;;;;;;;;;4986925;28;20334;-71
2022/05/28 03:02:29;;;;;;;9.70;3.03;;;;;;;;;;5003650;28;20468;-71
2022/05/28 03:04:54;;;;;;;7.53;3.15;;;;;;;;;;5003393;28;20037;-71
2022/05/28 03:07:19;;;;;;;9.82;3.47;;;;;;;;;;5005388;28;20033;-70
2022/05/28 03:09:45;;;;;;;17.02;4.10;;;;;;;;;;5004470;28;20060;-71
2022/05/28 03:12:10;;;;;;;17.33;3.63;;;;;;;;;;5005075;28;20339;-71
2022/05/28 03:14:36;;;;;;;7.00;3.30;;;;;;;;;;5006695;28;20365;-71
2022/05/28 03:17:01;;;;;;;9.52;3.67;;;;;;;;;;5000243;28;20022;-71
2022/05/28 03:19:26;;;;;;;7.65;3.05;;;;;;;;;;4999924;28;20403;-71
2022/05/28 03:21:51;;;;;;;11.20;3.22;;;;;;;;;;5003381;28;20360;-71
2022/05/28 03:24:16;;;;;;;10.50;3.20;;;;;;;;;;4985996;28;20287;-71
2022/05/28 03:26:42;;;;;;;8.85;2.72;;;;;;;;;;4998422;28;20029;-71
2022/05/28 03:29:07;;;;;;;15.23;3.60;;;;;;;;;;4984799;28;20077;-71
2022/05/28 03:31:32;;;;;;;9.88;2.92;;;;;;;;;;5004923;28;20404;-71
2022/05/28 03:33:57;;;;;;;16.17;3.47;;;;;;;;;;5010250;28;20109;-71
2022/05/28 03:36:23;;;;;;;5.88;2.50;;;;;;;;;;5004901;28;20308;-71
2022/05/28 03:38:48;;;;;;;14.50;3.15;;;;;;;;;;5006489;28;20033;-71
2022/05/28 03:41:14;;;;;;;7.38;2.53;;;;;;;;;;5006223;28;20073;-71
2022/05/28 03:43:39;;;;;;;7.80;2.95;;;;;;;;;;5010703;28;20550;-71
2022/05/28 03:46:04;;;;;;;11.57;2.97;;;;;;;;;;5000711;28;20025;-70
2022/05/28 03:48:32;;;;;;;14.75;3.40;;;;;;;;;;5003629;28;20077;-71
2022/05/28 03:50:57;;;;;;;12.27;2.85;;;;;;;;;;5000536;28;20021;-70
2022/05/28 03:53:22;;;;;;;7.90;2.90;;;;;;;;;;5002037;28;20029;-70
2022/05/28 03:55:48;;;;;;;7.75;2.80;;;;;;;;;;5003446;28;20303;-71
2022/05/28 03:58:13;;;;;;;10.27;3.38;;;;;;;;;;4999727;28;20022;-72
2022/05/28 04:00:39;;;;;;;7.90;2.20;;;;;;;;;;5000026;28;20288;-70
2022/05/28 04:03:05;;;;;;;8.88;2.30;;;;;;;;;;5000181;28;20271;-70
2022/05/28 04:05:30;;;;;;;15.90;3.70;;;;;;;;;;5005064;28;20076;-70
2022/05/28 04:07:55;;;;;;;8.27;2.55;;;;;;;;;;5000097;28;20032;-70
2022/05/28 04:10:20;;;;;;;11.30;2.97;;;;;;;;;;5004750;28;20361;-70
2022/05/28 04:12:46;;;;;;;8.38;3.35;;;;;;;;;;5001962;28;20263;-70
2022/05/28 04:15:11;;;;;;;17.00;2.90;;;;;;;;;;5002081;28;20621;-70
2022/05/28 04:17:37;;;;;;;8.93;2.88;;;;;;;;;;5001998;28;20263;-71
2022/05/28 04:20:03;;;;;;;9.85;2.72;;;;;;;;;;5004774;28;20077;-70
2022/05/28 04:22:28;;;;;;;7.40;2.83;;;;;;;;;;5003628;28;20424;-70
2022/05/28 04:24:53;;;;;;;12.07;2.53;;;;;;;;;;5000318;28;20036;-71
2022/05/28 04:27:19;;;;;;;8.80;1.90;;;;;;;;;;5005396;28;20041;-70
2022/05/28 04:29:44;;;;;;;9.68;2.17;;;;;;;;;;5011616;28;20049;-70
2022/05/28 04:32:09;;;;;;;15.63;3.40;;;;;;;;;;5003155;28;20056;-71
2022/05/28 04:34:34;;;;;;;17.08;2.80;;;;;;;;;;5003256;28;20694;-71
2022/05/28 04:36:59;;;;;;;8.00;2.53;;;;;;;;;;5002046;28;20101;-70
2022/05/28 04:39:25;;;;;;;10.30;2.40;;;;;;;;;;4983214;28;20272;-71
2022/05/28 04:41:50;;;;;;;9.57;2.50;;;;;;;;;;4999392;28;20361;-70
2022/05/28 04:44:15;;;;;;;19.50;3.00;;;;;;;;;;4996589;28;20018;-70
2022/05/28 04:46:41;;;;;;;14.93;2.13;;;;;;;;;;5002002;28;20318;-70
2022/05/28 04:49:06;;;;;;;9.33;2.47;;;;;;;;;;5000518;28;20030;-70
2022/05/28 04:51:31;;;;;;;14.63;3.33;;;;;;;;;;5002943;28;20736;-70
2022/05/28 04:53:57;;;;;;;19.33;2.20;;;;;;;;;;5004166;28;20029;-70
2022/05/28 04:56:22;;;;;;;13.90;2.27;;;;;;;;;;4996454;28;20653;-68
2022/05/28 04:58:47;;;;;;;12.87;2.07;;;;;;;;;;4999372;28;20271;-70
2022/05/28 05:01:17;;;;;;;9.52;2.25;;;;;;;;;;5003850;28;20610;-71
2022/05/28 05:03:42;;;;;;;17.38;3.35;;;;;;;;;;5000406;28;20037;-70
2022/05/28 05:06:07;;;;;;;11.40;2.75;;;;;;;;;;5006158;28;20030;-70
2022/05/28 05:08:32;;;;;;;11.87;2.13;;;;;;;;;;5001082;28;20383;-70
2022/05/28 05:10:57;;;;;;;10.13;2.22;;;;;;;;;;5002570;28;20326;-70
2022/05/28 05:13:23;;;;;;;12.87;2.50;;;;;;;;;;5007430;28;20544;-70
2022/05/28 05:15:48;;;;;;;8.70;2.45;;;;;;;;;;4999870;28;20647;-70
2022/05/28 05:18:13;;;;;;;7.78;2.00;;;;;;;;;;5001026;28;20034;-70
2022/05/28 05:20:38;;;;;;;7.72;2.45;;;;;;;;;;5002280;28;20022;-71
2022/05/28 05:23:04;;;;;;;6.80;1.93;;;;;;;;;;5003644;28;20100;-70
2022/05/28 05:25:29;;;;;;;11.55;2.60;;;;;;;;;;5003110;28;20271;-70
2022/05/28 05:27:54;;;;;;;5.47;1.77;;;;;;;;;;5011149;28;20036;-71
2022/05/28 05:30:20;;;;;;;12.73;2.37;;;;;;;;;;5006680;28;20792;-71
2022/05/28 05:32:45;;;;;;;9.75;2.17;;;;;;;;;;5000783;28;20283;-71
2022/05/28 05:35:10;;;;;;;12.75;2.42;;;;;;;;;;5003762;28;20022;-71
2022/05/28 05:37:35;;;;;;;8.05;2.13;;;;;;;;;;4984308;28;20033;-69
2022/05/28 05:40:01;;;;;;;8.65;1.90;;;;;;;;;;5002748;28;20456;-70
2022/05/28 05:42:26;;;;;;;5.82;1.88;;;;;;;;;;4995695;28;20139;-71
2022/05/28 05:44:53;;;;;;;11.10;1.90;;;;;;;;;;5001095;28;20372;-71
2022/05/28 05:47:18;;;;;;;6.18;1.88;;;;;;;;;;4999163;28;20626;-71
2022/05/28 05:49:43;;;;;;;10.52;1.55;;;;;;;;;;4999889;28;20044;-71
2022/05/28 05:52:08;;;;;;;9.32;1.88;;;;;;;;;;5001275;28;20072;-71
2022/05/28 05:54:34;;;;;;;6.13;1.40;;;;;;;;;;5000643;28;20136;-70
2022/05/28 05:56:59;;;;;;;4.60;1.35;;;;;;;;;;5003706;28;20652;-72
2022/05/28 05:59:24;;;;;;;4.30;1.00;;;;;;;;;;5000960;28;20041;-71
2022/05/28 06:01:50;;;;;;;9.73;1.92;;;;;;;;;;5021285;22;20084;-71
2022/05/28 06:04:15;;;;;;;8.00;1.50;;;;;;;;;;5024008;28;20119;-71
2022/05/28 06:06:40;;;;;;;8.83;1.43;;;;;;;;;;5016044;28;20046;-70
2022/05/28 06:09:05;;;;;;;6.07;1.10;;;;;;;;;;5016469;28;20327;-70
2022/05/28 06:11:31;;;;;;;3.90;1.40;;;;;;;;;;5025634;28;20440;-70
2022/05/28 06:13:56;;;;;;;9.95;1.45;;;;;;;;;;5026745;28;20419;-71
2022/05/28 06:16:21;;;;;;;6.73;1.30;;;;;;;;;;5024701;28;20037;-70
2022/05/28 06:18:46;;;;;;;6.20;1.42;;;;;;;;;;5017366;28;20110;-71
2022/05/28 06:21:12;;;;;;;4.55;1.15;;;;;;;;;;5018600;28;20033;-71
2022/05/28 06:23:38;;;;;;;6.80;1.02;;;;;;;;;;5028447;28;20433;-72
2022/05/28 06:26:03;;;;;;;5.70;1.27;;;;;;;;;;5025627;28;20040;-70
2022/05/28 06:28:29;;;;;;;6.70;1.30;;;;;;;;;;5025031;28;20415;-73
2022/05/28 06:30:58;;;;;;;11.48;1.52;;;;;;;;;;5021415;28;20017;-70
2022/05/28 06:33:23;;;;;;;6.75;1.05;;;;;;;;;;5030565;28;20036;-70
2022/05/28 06:35:48;;;;;;;6.70;1.20;;;;;;;;;;5011424;28;20395;-70
2022/05/28 06:38:13;;;;;;;6.53;1.73;;;;;;;;;;5023393;28;20527;-72
2022/05/28 06:40:39;;;;;;;6.00;1.60;;;;;;;;;;5025859;28;20440;-77
2022/05/28 06:43:04;;;;;;;8.40;1.60;;;;;;;;;;5004658;28;20017;-71
2022/05/28 06:45:29;;;;;;;5.20;1.02;;;;;;;;;;5009296;28;20044;-69
2022/05/28 06:47:54;;;;;;;4.87;1.40;;;;;;;;;;5007233;28;20108;-72
2022/05/28 06:53:07;;;;;;;5.50;1.20;;;;;;;;;;5020857;28;20376;-71
2022/05/28 06:55:33;;;;;;;5.82;1.25;;;;;;;;;;5023857;28;20009;-69
2022/05/28 06:57:58;;;;;;;6.63;1.63;;;;;;;;;;5025506;28;20391;-72
2022/05/28 07:00:23;;;;;;;5.10;1.13;;;;;;;;;;5028787;28;20275;-70
2022/05/28 07:02:48;;;;;;;5.87;1.33;;;;;;;;;;5023774;28;20049;-72
2022/05/28 07:05:14;;;;;;;4.90;1.63;;;;;;;;;;5026506;28;20753;-73
2022/05/28 07:07:40;;;;;;;5.78;1.00;;;;;;;;;;5024529;28;20030;-70
2022/05/28 07:10:05;;;;;;;1.80;1.20;;;;;;;;;;5021541;28;20029;-70
2022/05/28 07:12:31;;;;;;;13.20;1.25;;;;;;;;;;5020625;28;20025;-77
2022/05/28 07:14:56;;;;;;;3.77;0.80;;;;;;;;;;5016715;28;20022;-74
2022/05/28 07:17:22;;;;;;;7.43;1.50;;;;;;;;;;5024332;28;20369;-72
2022/05/28 07:19:48;;;;;;;2.38;1.38;;;;;;;;;;5021162;28;20385;-72
2022/05/28 07:22:13;;;;;;;5.07;1.00;;;;;;;;;;5021691;28;20035;-68
2022/05/28 07:24:38;;;;;;;3.23;1.07;;;;;;;;;;5025569;28;20323;-70
2022/05/28 07:27:03;;;;;;;4.22;1.17;;;;;;;;;;5024257;28;20335;-70
2022/05/28 07:29:28;;;;;;;3.70;0.80;;;;;;;;;;5012716;28;20033;-71
2022/05/28 07:31:53;;;;;;;5.57;1.30;;;;;;;;;;5021715;28;20041;-71
2022/05/28 07:34:19;;;;;;;5.00;1.33;;;;;;;;;;5015228;28;20089;-70
2022/05/28 07:36:44;;;;;;;4.10;1.30;;;;;;;;;;5018949;28;20667;-70
2022/05/28 07:39:09;;;;;;;12.20;1.40;;;;;;;;;;5017934;28;20041;-72
2022/05/28 07:41:36;;;;;;;2.95;0.95;;;;;;;;;;5023268;28;20041;-71
2022/05/28 07:44:01;;;;;;;4.75;0.90;;;;;;;;;;5025006;28;20531;-71
2022/05/28 07:46:28;;;;;;;3.60;0.80;;;;;;;;;;5021202;28;20136;-71
2022/05/28 07:48:54;;;;;;;2.85;0.77;;;;;;;;;;5023833;28;20054;-72
2022/05/28 07:51:19;;;;;;;3.35;0.73;;;;;;;;;;5016484;28;20030;-71
2022/05/28 07:53:44;;;;;;;2.10;0.70;;;;;;;;;;5019087;28;20021;-72
2022/05/28 07:56:10;;;;;;;6.55;1.85;;;;;;;;;;5025373;28;20032;-72
2022/05/28 07:58:35;;;;;;;5.25;1.02;;;;;;;;;;5024867;28;20029;-71
2022/05/28 08:01:00;;;;;;;4.10;1.17;;;;;;;;;;5004322;28;20025;-70
2022/05/28 08:03:26;;;;;;;4.60;0.85;;;;;;;;;;5019029;28;20037;-71
2022/05/28 08:05:51;;;;;;;3.65;0.90;;;;;;;;;;5021840;28;20034;-71
2022/05/28 08:08:17;;;;;;;5.47;1.38;;;;;;;;;;5022993;28;20473;-77
2022/05/28 08:10:43;;;;;;;4.80;0.85;;;;;;;;;;5018359;28;20487;-71
2022/05/28 08:13:12;;;;;;;4.43;1.10;;;;;;;;;;5015207;28;22084;-70
2022/05/28 08:15:39;;;;;;;3.35;0.90;;;;;;;;;;5018432;28;20024;-73
2022/05/28 08:18:04;;;;;;;5.03;1.30;;;;;;;;;;5016835;28;20030;-71
2022/05/28 08:23:14;;;;;;;5.13;1.20;;;;;;;;;;5018743;28;20031;-72
2022/05/28 08:25:39;;;;;;;2.15;1.00;;;;;;;;;;5016918;28;20410;-72
2022/05/28 08:28:06;;;;;;;2.95;1.05;;;;;;;;;;5004189;28;20414;-75
2022/05/28 08:30:31;;;;;;;7.72;1.00;;;;;;;;;;5022701;28;20030;-72
2022/05/28 08:32:56;;;;;;;4.67;0.97;;;;;;;;;;5020423;28;20021;-73
2022/05/28 08:35:21;;;;;;;10.10;1.05;;;;;;;;;;5021967;28;20711;-74
2022/05/28 08:37:47;;;;;;;4.43;0.93;;;;;;;;;;5019954;28;20033;-72
2022/05/28 08:40:12;;;;;;;4.67;1.47;;;;;;;;;;5019635;28;20029;-72
2022/05/28 08:42:38;;;;;;;10.88;1.67;;;;;;;;;;5026268;28;20277;-70
2022/05/28 08:45:04;;;;;;;3.47;1.10;;;;;;;;;;5018592;28;20053;-71
2022/05/28 08:47:33;;;;;;;1.63;0.80;;;;;;;;;;5023940;28;20041;-70
2022/05/28 08:49:58;;;;;;;4.75;1.27;;;;;;;;;;5019379;28;20021;-70
2022/05/28 08:52:33;;;;;;;5.33;1.33;;;;;;;;;;5016595;28;20495;-71
2022/05/28 08:55:04;;;;;;;7.20;1.42;;;;;;;;;;5017256;28;20018;-70
2022/05/28 08:57:48;;;;;;;4.13;1.00;;;;;;;;;;5020259;28;20436;-71
2022/05/28 09:00:33;;;;;;;4.23;0.90;;;;;;;;;;5020626;28;20033;-70
2022/05/28 09:03:10;;;;;;;5.90;1.00;;;;;;;;;;5015559;28;20037;-75
2022/05/28 09:05:43;;;;;;;13.00;1.88;;;;;;;;;;5020409;28;20542;-76
2022/05/28 09:08:10;;;;;;;6.25;1.42;;;;;;;;;;5012187;28;20076;-74
2022/05/28 09:10:43;;;;;;;3.75;0.82;;;;;;;;;;5020579;28;20030;-71
2022/05/28 09:13:19;;;;;;;4.55;1.00;;;;;;;;;;5021565;28;20101;-70
2022/05/28 09:15:44;;;;;;;2.72;1.10;;;;;;;;;;5014647;28;20145;-74
2022/05/28 09:18:12;;;;;;;3.10;1.20;;;;;;;;;;5016136;28;20112;-71
2022/05/28 09:20:38;;;;;;;5.07;1.00;;;;;;;;;;5016537;28;20654;-70
2022/05/28 09:23:04;;;;;;;7.40;1.00;;;;;;;;;;5017771;28;20079;-70
2022/05/28 09:25:31;;;;;;;2.33;0.70;;;;;;;;;;5020585;28;20029;-75
2022/05/28 09:27:59;;;;;;;4.70;1.00;;;;;;;;;;5014919;28;20426;-74
2022/05/28 09:30:36;;;;;;;4.25;0.90;;;;;;;;;;5022055;28;20017;-72
2022/05/28 09:33:07;;;;;;;5.47;1.08;;;;;;;;;;5016249;28;20025;-71
2022/05/28 09:35:38;;;;;;;6.45;1.10;;;;;;;;;;5022643;28;20025;-71
2022/05/28 09:38:18;;;;;;;2.08;0.98;;;;;;;;;;5016973;28;20424;-70
2022/05/28 09:40:51;;;;;;;6.68;1.00;;;;;;;;;;5016106;28;20026;-71
2022/05/28 09:43:19;;;;;;;4.93;1.27;;;;;;;;;;5022293;28;20380;-71
2022/05/28 09:45:47;;;;;;;5.35;1.10;;;;;;;;;;5024184;28;20571;-70
2022/05/28 09:48:22;;;;;;;6.05;0.95;;;;;;;;;;5017605;28;20057;-70
2022/05/28 09:50:48;;;;;;;7.40;1.25;;;;;;;;;;5019807;28;20415;-76
2022/05/28 09:56:09;;;;;;;5.75;1.15;;;;;;;;;;5020152;28;20495;-70
2022/05/28 09:58:38;;;;;;;6.10;1.23;;;;;;;;;;5021401;28;20037;-72
2022/05/28 10:01:04;;;;;;;4.72;0.90;;;;;;;;;;5023046;28;20040;-69
2022/05/28 10:06:22;;;;;;;2.50;0.90;;;;;;;;;;5019763;28;20040;-75
2022/05/28 10:08:47;;;;;;;5.72;1.15;;;;;;;;;;5021680;28;20469;-74
2022/05/28 10:11:14;;;;;;;5.07;1.17;;;;;;;;;;5003653;28;20034;-70
2022/05/28 10:13:44;;;;;;;3.97;1.10;;;;;;;;;;5023887;28;20026;-72
2022/05/28 10:16:10;;;;;;;6.40;1.15;;;;;;;;;;5011055;28;20397;-71
2022/05/28 10:18:40;;;;;;;6.53;1.05;;;;;;;;;;5018862;28;20025;-68
2022/05/28 10:21:07;;;;;;;5.18;1.17;;;;;;;;;;5002744;28;20530;-70
2022/05/28 10:23:34;;;;;;;4.30;1.40;;;;;;;;;;5000892;28;20050;-71
2022/05/28 10:25:59;;;;;;;4.80;1.17;;;;;;;;;;4997580;28;20030;-76
2022/05/28 10:28:33;;;;;;;7.50;1.07;;;;;;;;;;4998329;28;20114;-71
2022/05/28 10:30:58;;;;;;;5.30;1.20;;;;;;;;;;4995668;28;20231;-71
2022/05/28 10:33:25;;;;;;;7.28;1.13;;;;;;;;;;5003927;28;20105;-70
2022/05/28 10:35:50;;;;;;;10.55;1.90;;;;;;;;;;5005119;28;20034;-72
2022/05/28 10:38:20;;;;;;;5.27;1.20;;;;;;;;;;4999248;28;20030;-71
2022/05/28 10:40:48;;;;;;;3.60;0.73;;;;;;;;;;4999793;28;20033;-70
2022/05/28 10:43:22;;;;;;;6.93;1.10;;;;;;;;;;5003942;28;20403;-70
2022/05/28 10:45:51;;;;;;;5.53;1.00;;;;;;;;;;5001189;28;20513;-70
2022/05/28 10:48:27;;;;;;;3.40;1.13;;;;;;;;;;5001239;28;20128;-72
2022/05/28 10:50:52;;;;;;;8.52;1.30;;;;;;;;;;4989616;28;20136;-69
2022/05/28 10:53:43;;;;;;;7.00;1.33;;;;;;;;;;4997375;28;20023;-71
2022/05/28 10:56:32;;;;;;;6.60;1.50;;;;;;;;;;4971329;28;20045;-73
2022/05/28 10:59:06;;;;;;;3.92;1.15;;;;;;;;;;4990229;28;20038;-71
2022/05/28 11:01:49;;;;;;;7.95;1.00;;;;;;;;;;4984386;28;20080;-69
2022/05/28 11:04:21;;;;;;;6.53;1.75;;;;;;;;;;5006846;28;20032;-71
2022/05/28 11:06:46;;;;;;;7.07;1.52;;;;;;;;;;4989256;28;20018;-72
2022/05/28 11:09:14;;;;;;;4.00;0.97;;;;;;;;;;5005107;28;20026;-72
2022/05/28 11:11:46;;;;;;;5.88;1.35;;;;;;;;;;5002713;28;20022;-74
2022/05/28 11:14:24;;;;;;;4.20;1.30;;;;;;;;;;5003770;28;20359;-72
2022/05/28 11:17:08;;;;;;;3.28;0.90;;;;;;;;;;4997876;28;20023;-70
2022/05/28 11:19:48;;;;;;;4.80;1.38;;;;;;;;;;5004741;28;20100;-79
2022/05/28 11:22:32;;;;;;;4.95;1.35;;;;;;;;;;4996651;28;20037;-73
2022/05/28 11:25:09;;;;;;;6.63;1.27;;;;;;;;;;4990099;28;20108;-72
2022/05/28 11:27:40;;;;;;;6.28;1.65;;;;;;;;;;5010236;28;20026;-70
2022/05/28 11:30:08;;;;;;;4.47;1.00;;;;;;;;;;4987912;28;20051;-72
2022/05/28 11:32:37;;;;;;;4.95;1.50;;;;;;;;;;5002011;28;20021;-75
2022/05/28 11:35:23;;;;;;;5.40;1.80;;;;;;;;;;5003819;28;20026;-79
2022/05/28 11:37:52;;;;;;;3.33;1.23;;;;;;;;;;4977803;28;20030;-72
2022/05/28 11:40:21;;;;;;;3.05;1.40;;;;;;;;;;4999022;28;20030;-77
2022/05/28 11:43:01;;;;;;;5.60;1.27;;;;;;;;;;4997968;28;20037;-70
2022/05/28 11:45:41;;;;;;;1.50;1.02;;;;;;;;;;5001010;28;20026;-71
2022/05/28 11:48:09;;;;;;;7.43;1.42;;;;;;;;;;4999242;28;20021;-69
2022/05/28 11:53:26;;;;;;;5.28;1.30;;;;;;;;;;4994045;28;20045;-73
2022/05/28 11:55:53;;;;;;;5.50;1.40;;;;;;;;;;4992706;28;20096;-73
2022/05/28 11:58:20;;;;;;;9.35;1.75;;;;;;;;;;4998441;28;20033;-72
2022/05/28 12:00:50;;;;;;;6.65;1.50;;;;;;;;;;4999032;28;20428;-74
2022/05/28 12:03:17;;;;;;;5.20;1.75;;;;;;;;;;5002320;28;20036;-73
2022/05/28 12:05:50;;;;;;;10.43;1.60;;;;;;;;;;5002764;28;20025;-74
2022/05/28 12:08:30;;;;;;;7.72;2.03;;;;;;;;;;4992254;28;20038;-75
2022/05/28 12:10:58;;;;;;;3.97;1.27;;;;;;;;;;5016792;28;20022;-73
2022/05/28 12:13:32;;;;;;;5.75;1.38;;;;;;;;;;5006759;28;20034;-71
2022/05/28 12:16:20;;;;;;;4.60;1.40;;;;;;;;;;4999437;28;20025;-78
2022/05/28 12:18:58;;;;;;;3.90;0.98;;;;;;;;;;4990881;28;20053;-73
2022/05/28 12:21:27;;;;;;;5.10;1.73;;;;;;;;;;4997885;28;20026;-73
2022/05/28 12:24:04;;;;;;;3.85;1.25;;;;;;;;;;5004671;28;20552;-71
2022/05/28 12:26:47;;;;;;;5.88;1.58;;;;;;;;;;5000092;28;20030;-73
2022/05/28 12:29:14;;;;;;;;;;;;;;;;;;4998576;28;20368;-74
2022/05/28 12:31:39;;;;;;;3.70;1.15;;;;;;;;;;4995373;28;19920;-73
2022/05/28 12:34:05;;;;;;;3.17;1.03;;;;;;;;;;4994625;28;20237;-73
2022/05/28 12:36:38;;;;;;;4.43;1.02;;;;;;;;;;4999202;28;20049;-73
2022/05/28 12:39:13;;;;;;;5.82;1.20;;;;;;;;;;5000263;28;20049;-74
2022/05/28 12:41:38;;;;;;;3.88;1.27;;;;;;;;;;4999908;28;20042;-74
2022/05/28 12:44:16;;;;;;;4.30;1.60;;;;;;;;;;4999475;28;20034;-75
2022/05/28 12:46:48;;;;;;;4.63;1.50;;;;;;;;;;5000643;28;20017;-74
2022/05/28 12:49:37;;;;;;;7.25;1.08;;;;;;;;;;4999176;28;20025;-73
2022/05/28 12:52:21;;;;;;;4.45;0.95;;;;;;;;;;5000848;28;20416;-76
2022/05/28 12:54:57;;;;;;;6.32;2.25;;;;;;;;;;4995334;28;20094;-72
2022/05/28 12:57:25;;;;;;;9.18;1.50;;;;;;;;;;5001498;28;20530;-73
2022/05/28 12:59:58;;;;;;;4.28;1.40;;;;;;;;;;4996552;28;20030;-72
2022/05/28 13:02:26;;;;;;;6.78;1.50;;;;;;;;;;5003847;28;20038;-76
2022/05/28 13:04:58;;;;;;;7.97;1.35;;;;;;;;;;5001565;28;20025;-72
2022/05/28 13:07:29;;;;;;;4.15;1.30;;;;;;;;;;5000947;28;20381;-73
2022/05/28 13:10:01;;;;;;;8.88;1.55;;;;;;;;;;4993465;28;20033;-72
2022/05/28 13:12:29;;;;;;;2.55;1.30;;;;;;;;;;5001519;28;20034;-71
2022/05/28 13:14:54;;;;;;;3.05;1.35;;;;;;;;;;4996759;28;20026;-72
2022/05/28 13:17:20;;;;;;;4.93;1.35;;;;;;;;;;5000290;28;20022;-71
2022/05/28 13:20:00;;;;;;;6.75;2.05;;;;;;;;;;4999270;28;20477;-72
2022/05/28 13:22:28;;;;;;;5.80;1.23;;;;;;;;;;4995398;28;20377;-72
2022/05/28 13:25:00;;;;;;;3.95;1.60;;;;;;;;;;4993330;28;20029;-72
2022/05/28 13:27:45;;;;;;;5.55;1.10;;;;;;;;;;4996976;28;20034;-74
2022/05/28 13:30:15;;;;;;;7.95;1.75;;;;;;;;;;4995755;28;20534;-75
2022/05/28 13:32:43;;;;;;;5.20;1.23;;;;;;;;;;4995565;28;20419;-73
2022/05/28 13:35:11;;;;;;;3.28;1.40;;;;;;;;;;4984103;28;20415;-72
2022/05/28 13:37:40;;;;;;;3.50;1.35;;;;;;;;;;4996474;28;20335;-73
2022/05/28 13:40:07;;;;;;;2.90;1.20;;;;;;;;;;4996093;28;20546;-73
2022/05/28 13:42:33;;;;;;;6.28;1.60;;;;;;;;;;4999990;28;20076;-73
2022/05/28 13:44:59;;;;;;;4.68;1.20;;;;;;;;;;4992887;28;20033;-72
2022/05/28 13:47:29;;;;;;;6.30;1.35;;;;;;;;;;4987447;28;20010;-72
2022/05/28 13:49:56;;;;;;;4.28;1.27;;;;;;;;;;4998200;28;20025;-72
2022/05/28 13:52:22;;;;;;;3.72;1.50;;;;;;;;;;5000112;28;20025;-73
2022/05/28 13:54:54;;;;;;;7.00;1.63;;;;;;;;;;4998510;28;20060;-74
2022/05/28 13:57:19;;;;;;;8.05;1.52;;;;;;;;;;4999370;28;21490;-76
2022/05/28 13:59:54;;;;;;;5.65;1.40;;;;;;;;;;5001171;28;20456;-74
2022/05/28 14:02:20;;;;;;;7.57;1.42;;;;;;;;;;4997539;28;20026;-69
2022/05/28 14:04:46;;;;;;;6.30;1.38;;;;;;;;;;4996122;28;20030;-70
2022/05/28 14:07:21;;;;;;;9.30;1.50;;;;;;;;;;4988224;28;20384;-70
2022/05/28 14:09:46;;;;;;;3.03;1.88;;;;;;;;;;4989919;28;20157;-69
2022/05/28 14:12:11;;;;;;;4.68;1.52;;;;;;;;;;4990710;28;20026;-69
2022/05/28 14:14:38;;;;;;;3.47;1.80;;;;;;;;;;4973754;28;20010;-68
2022/05/28 14:17:04;;;;;;;8.98;2.05;;;;;;;;;;4985999;28;20046;-69
2022/05/28 14:19:36;;;;;;;5.95;1.65;;;;;;;;;;4988392;28;20133;-71
2022/05/28 14:22:07;;;;;;;7.82;1.63;;;;;;;;;;4969774;28;20088;-70
2022/05/28 14:24:36;;;;;;;5.82;1.67;;;;;;;;;;4988876;28;20022;-69
2022/05/28 14:27:05;;;;;;;5.05;1.23;;;;;;;;;;4985650;28;20453;-70
2022/05/28 14:29:32;;;;;;;6.57;1.33;;;;;;;;;;4992695;28;20347;-69
2022/05/28 14:31:57;;;;;;;7.47;1.42;;;;;;;;;;4993086;28;20037;-71
2022/05/28 14:34:24;;;;;;;3.08;1.25;;;;;;;;;;4990275;28;20029;-70
2022/05/28 14:36:54;;;;;;;6.13;1.30;;;;;;;;;;4987423;28;20088;-70
2022/05/28 14:39:20;;;;;;;3.70;1.10;;;;;;;;;;4986689;28;20058;-70
2022/05/28 14:41:50;;;;;;;2.20;1.45;;;;;;;;;;4987240;28;20033;-72
2022/05/28 14:44:16;;;;;;;5.63;1.38;;;;;;;;;;4988751;28;20066;-69
2022/05/28 14:46:43;;;;;;;5.75;1.20;;;;;;;;;;4989740;28;20840;-69
2022/05/28 14:49:16;;;;;;;6.28;1.48;;;;;;;;;;4989551;28;20030;-72
2022/05/28 14:51:42;;;;;;;4.55;0.95;;;;;;;;;;4993911;28;20026;-71
2022/05/28 14:54:26;;;;;;;5.75;1.27;;;;;;;;;;4988254;28;20086;-71
2022/05/28 14:56:51;;;;;;;;;;;;;;;;;;4982458;28;20022;-71
2022/05/28 14:59:32;;;;;;;4.35;1.30;;;;;;;;;;4991118;28;20001;-71
2022/05/28 15:01:57;;;;;;;4.95;1.08;;;;;;;;;;4987867;28;20546;-69
2022/05/28 15:04:34;;;;;;;3.93;1.30;;;;;;;;;;4988840;28;21062;-69